Time;durP1;ratioP1;P1;durP2;ratioP2;P2;SDS_P1;SDS_P2;PMS_P1;PMS_P2;Temp;Humidity;BMP_temperature;BMP_pressure;BME280_temperature;BME280_humidity;BME280_pressure;Samples;Min_cycle;Max_cycle;Signal;HPM_P1;HPM_P2
2023/04/15 00:00:51;;;;;;;15.00;8.20;;;;;;;10.88;92.26;99515.95;217908;1288;138880;-91
2023/04/15 00:05:51;;;;;;;15.00;8.30;;;;;;;10.82;92.65;99515.27;218571;1288;96241;-90
2023/04/15 00:10:52;;;;;;;15.70;8.80;;;;;;;10.78;92.75;99513.00;217866;1288;139862;-90
2023/04/15 00:15:52;;;;;;;16.70;8.60;;;;;;;10.73;93.00;99514.98;218489;1288;138529;-89
2023/04/15 00:20:53;;;;;;;15.90;9.20;;;;;;;10.69;93.21;99518.55;217893;1288;139526;-91
2023/04/15 00:25:54;;;;;;;14.60;8.80;;;;;;;10.62;93.60;99517.48;218494;1288;140758;-89
2023/04/15 00:30:54;;;;;;;16.90;9.00;;;;;;;10.58;94.05;99515.60;217923;1288;139563;-91
2023/04/15 00:35:55;;;;;;;19.70;8.80;;;;;;;10.53;94.08;99516.48;218574;1287;96103;-91
2023/04/15 00:40:56;;;;;;;15.10;8.20;;;;;;;10.48;94.09;99513.92;217806;1288;138430;-91
2023/04/15 00:45:58;;;;;;;17.80;9.50;;;;;;;10.43;94.39;99508.81;218480;1288;140754;-90
2023/04/15 00:50:58;;;;;;;16.10;9.40;;;;;;;10.39;94.53;99501.20;217938;1288;139438;-88
2023/04/15 00:55:59;;;;;;;19.20;10.00;;;;;;;10.34;95.16;99499.73;218420;1289;139353;-91
2023/04/15 01:01:00;;;;;;;19.30;9.80;;;;;;;10.30;94.95;99494.86;217657;1287;139550;-91
2023/04/15 01:06:02;;;;;;;15.60;9.50;;;;;;;10.26;95.14;99497.39;218586;1288;96737;-89
2023/04/15 01:11:02;;;;;;;18.80;10.10;;;;;;;10.21;95.14;99493.55;217892;1289;139941;-90
2023/04/15 01:16:03;;;;;;;19.10;9.10;;;;;;;10.16;95.20;99495.69;218475;1287;140738;-90
2023/04/15 01:21:04;;;;;;;15.30;9.00;;;;;;;10.10;95.42;99498.61;217936;1288;139300;-91
2023/04/15 01:26:07;;;;;;;16.10;9.80;;;;;;;10.04;95.66;99495.86;218416;1288;138981;-90
2023/04/15 01:31:11;;;;;;;17.00;9.70;;;;;;;9.98;95.78;99501.44;217829;1288;139288;-90
2023/04/15 01:36:11;;;;;;;17.60;9.20;;;;;;;9.93;95.71;99506.07;218480;1288;96063;-90
2023/04/15 01:41:12;;;;;;;17.50;10.60;;;;;;;9.88;96.17;99509.13;217914;1287;140246;-89
2023/04/15 01:46:13;;;;;;;17.50;9.60;;;;;;;9.84;96.33;99507.41;218430;1288;139299;-91
2023/04/15 01:51:14;;;;;;;17.10;10.00;;;;;;;9.79;96.56;99507.48;217915;1287;139220;-90
2023/04/15 01:56:14;;;;;;;17.80;9.30;;;;;;;9.76;96.61;99505.30;218427;1287;139392;-91
2023/04/15 02:01:18;;;;;;;18.70;9.70;;;;;;;9.73;96.46;99511.89;217850;1288;139106;-90
2023/04/15 02:06:18;;;;;;;19.10;10.80;;;;;;;9.69;96.94;99508.83;218349;1288;97114;-92
2023/04/15 02:11:19;;;;;;;19.50;10.70;;;;;;;9.65;96.92;99516.05;217722;1289;138712;-92
2023/04/15 02:16:19;;;;;;;16.50;9.90;;;;;;;9.61;97.48;99517.70;218336;1288;139684;-91
2023/04/15 02:21:19;;;;;;;18.00;10.10;;;;;;;9.59;97.42;99514.09;217971;1288;139300;-91
2023/04/15 02:26:21;;;;;;;17.80;10.20;;;;;;;9.58;98.20;99507.57;218261;1288;139292;-88
2023/04/15 02:31:21;;;;;;;14.90;9.60;;;;;;;9.59;98.26;99505.06;217915;1288;138999;-89
2023/04/15 02:36:22;;;;;;;17.10;10.40;;;;;;;9.60;98.29;99508.11;218589;1288;96032;-90
2023/04/15 02:41:26;;;;;;;18.00;9.90;;;;;;;9.62;98.39;99511.73;217924;1288;138722;-90
2023/04/15 02:46:27;;;;;;;16.60;9.80;;;;;;;9.63;98.25;99513.30;218501;1288;138745;-91
2023/04/15 02:51:30;;;;;;;19.60;10.00;;;;;;;9.65;98.53;99511.11;217908;1288;138589;-91
2023/04/15 02:56:31;;;;;;;18.60;11.00;;;;;;;9.67;98.43;99508.98;218428;1288;139742;-91
2023/04/15 03:01:31;;;;;;;18.50;11.10;;;;;;;9.68;98.51;99508.52;217947;1288;138982;-90
2023/04/15 03:06:32;;;;;;;16.20;10.50;;;;;;;9.68;98.73;99504.83;218332;1288;138740;-91
2023/04/15 03:11:32;;;;;;;21.70;11.50;;;;;;;9.70;98.67;99507.02;218143;1288;138928;-89
2023/04/15 03:16:33;;;;;;;17.90;11.30;;;;;;;9.70;99.00;99507.41;218432;1288;139145;-90
2023/04/15 03:21:33;;;;;;;18.70;11.10;;;;;;;9.71;98.94;99511.82;217932;1288;139071;-90
2023/04/15 03:26:34;;;;;;;19.20;11.10;;;;;;;9.70;99.24;99513.45;218494;1287;138750;-90
2023/04/15 03:31:34;;;;;;;17.80;11.40;;;;;;;9.67;99.95;99517.63;217826;1288;139339;-89
2023/04/15 03:36:35;;;;;;;19.80;12.50;;;;;;;9.62;100.00;99519.04;218446;1288;139362;-88
2023/04/15 03:41:35;;;;;;;20.70;11.60;;;;;;;9.58;100.00;99525.62;218082;1288;140077;-88
2023/04/15 03:46:36;;;;;;;19.10;12.10;;;;;;;9.53;100.00;99527.11;218441;1288;139179;-89
2023/04/15 03:51:36;;;;;;;19.30;11.90;;;;;;;9.47;100.00;99527.66;217950;1288;139737;-90
2023/04/15 03:56:37;;;;;;;19.30;12.00;;;;;;;9.42;100.00;99530.40;218506;1288;139132;-90
2023/04/15 04:01:37;;;;;;;20.40;13.40;;;;;;;9.34;100.00;99534.39;217774;1287;139480;-88
2023/04/15 04:06:38;;;;;;;19.40;12.20;;;;;;;9.29;100.00;99534.61;218359;1288;139267;-89
2023/04/15 04:11:38;;;;;;;18.60;11.90;;;;;;;9.22;100.00;99539.70;218193;1288;138905;-88
2023/04/15 04:16:39;;;;;;;20.50;12.70;;;;;;;9.17;100.00;99540.46;218202;1288;199682;-88
2023/04/15 04:21:39;;;;;;;22.90;12.50;;;;;;;9.12;100.00;99543.60;217965;1288;140797;-87
2023/04/15 04:26:40;;;;;;;22.80;13.00;;;;;;;9.07;100.00;99537.85;218422;1291;138747;-88
2023/04/15 04:31:40;;;;;;;21.00;13.00;;;;;;;9.04;100.00;99536.52;217968;1288;140494;-89
2023/04/15 04:36:41;;;;;;;22.80;13.30;;;;;;;9.03;100.00;99540.66;218356;1287;139117;-89
2023/04/15 04:41:41;;;;;;;19.80;12.60;;;;;;;8.99;100.00;99541.04;218105;1288;139222;-88
2023/04/15 04:46:42;;;;;;;23.60;13.90;;;;;;;8.96;100.00;99542.14;218528;1288;140014;-89
2023/04/15 04:51:42;;;;;;;19.80;12.00;;;;;;;8.97;100.00;99545.11;217980;1288;139735;-86
2023/04/15 04:56:43;;;;;;;21.40;12.80;;;;;;;8.97;100.00;99549.20;218508;1287;139437;-88
2023/04/15 05:01:43;;;;;;;21.30;13.00;;;;;;;8.96;100.00;99553.97;217998;1288;139235;-88
2023/04/15 05:06:44;;;;;;;22.80;13.00;;;;;;;8.95;100.00;99555.70;218516;1288;138777;-87
2023/04/15 05:11:44;;;;;;;26.00;13.40;;;;;;;8.94;100.00;99556.95;217877;1288;138980;-87
2023/04/15 05:16:45;;;;;;;21.00;13.40;;;;;;;8.95;100.00;99556.48;218523;1288;140446;-87
2023/04/15 05:21:45;;;;;;;19.70;11.90;;;;;;;8.97;100.00;99555.39;217978;1288;140279;-88
2023/04/15 05:26:46;;;;;;;22.10;13.30;;;;;;;8.97;100.00;99560.65;218515;1288;138711;-87
2023/04/15 05:31:46;;;;;;;21.70;13.30;;;;;;;9.00;100.00;99561.52;217969;1288;139866;-90
2023/04/15 05:36:47;;;;;;;18.90;12.70;;;;;;;9.00;100.00;99565.91;218542;1288;139591;-87
2023/04/15 05:41:47;;;;;;;21.50;12.70;;;;;;;9.01;100.00;99565.21;217888;1288;139130;-86
2023/04/15 05:46:48;;;;;;;20.40;12.40;;;;;;;9.01;100.00;99564.42;218535;1288;138779;-90
2023/04/15 05:51:48;;;;;;;22.20;14.30;;;;;;;9.02;100.00;99562.63;218053;1288;140125;-87
2023/04/15 05:56:49;;;;;;;22.90;13.90;;;;;;;9.04;100.00;99563.23;218580;1287;138847;-88
2023/04/15 06:01:50;;;;;;;21.60;13.60;;;;;;;9.06;100.00;99570.71;217876;1288;139491;-88
2023/04/15 06:06:51;;;;;;;20.10;13.00;;;;;;;9.08;100.00;99569.55;218359;1288;138794;-91
2023/04/15 06:11:52;;;;;;;19.90;13.60;;;;;;;9.09;100.00;99573.46;218044;1288;139073;-88
2023/04/15 06:16:52;;;;;;;23.40;14.20;;;;;;;9.10;100.00;99578.88;218466;1287;138566;-90
2023/04/15 06:21:53;;;;;;;19.50;12.40;;;;;;;9.11;100.00;99580.23;217968;1288;139341;-87
2023/04/15 06:26:53;;;;;;;20.80;13.30;;;;;;;9.14;100.00;99586.19;218498;1287;138854;-87
2023/04/15 06:31:55;;;;;;;19.00;12.50;;;;;;;9.17;100.00;99586.98;217807;1288;139464;-87
2023/04/15 06:36:56;;;;;;;21.80;13.20;;;;;;;9.20;100.00;99590.29;218294;1288;138701;-89
2023/04/15 06:41:57;;;;;;;19.70;13.10;;;;;;;9.24;100.00;99587.55;218035;1288;139482;-88
2023/04/15 06:46:57;;;;;;;19.40;12.50;;;;;;;9.26;100.00;99591.02;218374;1288;138676;-88
2023/04/15 06:51:57;;;;;;;19.10;13.40;;;;;;;9.31;100.00;99596.44;217905;1287;138817;-86
2023/04/15 06:56:58;;;;;;;19.50;13.20;;;;;;;9.35;100.00;99601.23;218532;1287;139092;-86
2023/04/15 07:01:58;;;;;;;17.50;11.30;;;;;;;9.41;100.00;99602.66;217965;1288;139066;-87
2023/04/15 07:07:01;;;;;;;20.40;13.30;;;;;;;9.46;100.00;99611.05;218514;1288;139248;-87
2023/04/15 07:12:01;;;;;;;20.10;13.30;;;;;;;9.51;100.00;99612.48;218007;1288;138804;-86
2023/04/15 07:17:02;;;;;;;18.10;12.00;;;;;;;9.54;100.00;99618.46;218469;1288;138534;-87
2023/04/15 07:22:02;;;;;;;20.20;13.50;;;;;;;9.59;100.00;99615.02;217905;1288;139046;-88
2023/04/15 07:27:03;;;;;;;20.90;14.20;;;;;;;9.62;100.00;99623.59;218469;1288;139224;-87
2023/04/15 07:32:04;;;;;;;20.20;13.60;;;;;;;9.64;100.00;99622.56;217934;1289;138912;-88
2023/04/15 07:37:04;;;;;;;25.00;14.40;;;;;;;9.68;100.00;99629.48;218513;1288;141005;-88
2023/04/15 07:42:04;;;;;;;18.70;12.60;;;;;;;9.73;100.00;99635.07;217950;1288;139081;-87
2023/04/15 07:47:05;;;;;;;20.00;12.80;;;;;;;9.80;100.00;99632.16;218612;1288;138632;-88
2023/04/15 07:52:05;;;;;;;17.30;12.10;;;;;;;9.81;100.00;99637.52;217822;1287;140891;-89
2023/04/15 07:57:06;;;;;;;18.80;12.90;;;;;;;9.82;100.00;99639.55;218456;1288;138641;-90
2023/04/15 08:02:07;;;;;;;17.80;11.60;;;;;;;9.82;100.00;99643.39;217777;1291;139607;-90
2023/04/15 08:07:07;;;;;;;17.30;11.40;;;;;;;9.86;100.00;99647.56;218484;1287;139323;-89
2023/04/15 08:12:11;;;;;;;20.40;12.10;;;;;;;9.88;100.00;99650.77;218076;1288;140643;-90
2023/04/15 08:17:11;;;;;;;18.90;11.80;;;;;;;9.93;100.00;99651.80;218444;1288;139043;-90
2023/04/15 08:22:12;;;;;;;17.30;10.90;;;;;;;9.95;100.00;99657.23;217817;1288;141166;-90
2023/04/15 08:27:13;;;;;;;17.20;10.00;;;;;;;9.97;100.00;99657.16;218290;1288;141837;-86
2023/04/15 08:32:14;;;;;;;18.00;10.90;;;;;;;9.98;100.00;99657.39;217937;1288;140320;-90
2023/04/15 08:37:14;;;;;;;15.80;10.00;;;;;;;10.02;100.00;99664.30;218547;1288;139707;-91
2023/04/15 08:42:17;;;;;;;17.10;10.40;;;;;;;10.07;100.00;99663.63;218135;1288;139042;-90
2023/04/15 08:47:21;;;;;;;15.80;10.10;;;;;;;10.16;100.00;99670.15;218487;1288;138787;-89
2023/04/15 08:52:23;;;;;;;14.40;9.00;;;;;;;10.23;100.00;99675.73;217738;1288;139889;-91
2023/04/15 08:57:28;;;;;;;16.00;10.40;;;;;;;10.24;100.00;99674.95;218315;1288;138836;-89
2023/04/15 09:02:28;;;;;;;14.80;8.50;;;;;;;10.26;100.00;99680.22;217972;1288;139921;-88
2023/04/15 09:07:29;;;;;;;13.30;8.60;;;;;;;10.30;100.00;99682.27;218392;1288;139411;-89
2023/04/15 09:12:30;;;;;;;15.80;9.90;;;;;;;10.36;100.00;99681.01;217724;1288;139412;-90
2023/04/15 09:17:33;;;;;;;14.40;10.50;;;;;;;10.47;100.00;99686.35;218510;1288;96116;-90
2023/04/15 09:22:33;;;;;;;15.20;9.20;;;;;;;10.58;100.00;99684.39;217892;1289;139292;-89
2023/04/15 09:27:36;;;;;;;13.70;9.00;;;;;;;10.70;100.00;99686.17;218412;1288;139062;-90
2023/04/15 09:32:48;;;;;;;13.80;8.80;;;;;;;10.72;100.00;99691.20;218009;1288;138993;-89
2023/04/15 09:37:50;;;;;;;14.10;8.70;;;;;;;10.76;100.00;99693.39;218228;1288;139110;-89
2023/04/15 09:42:54;;;;;;;13.40;8.80;;;;;;;10.82;100.00;99694.55;217800;1289;139393;-89
2023/04/15 09:48:13;;;;;;;12.30;8.00;;;;;;;10.88;100.00;99694.94;218366;1291;104549;-89
2023/04/15 09:53:19;;;;;;;13.80;8.50;;;;;;;10.93;100.00;99702.56;217705;1288;139271;-89
2023/04/15 09:58:27;;;;;;;14.00;9.00;;;;;;;10.99;100.00;99698.46;218361;1289;140095;-91
2023/04/15 10:03:29;;;;;;;20.80;12.00;;;;;;;11.08;100.00;99704.58;217750;1289;139022;-91
2023/04/15 10:08:33;;;;;;;16.90;10.90;;;;;;;11.22;100.00;99703.60;218286;1288;139329;-91
2023/04/15 10:13:36;;;;;;;14.00;10.10;;;;;;;11.35;100.00;99701.65;217903;1288;140191;-91
2023/04/15 10:18:44;;;;;;;15.00;10.00;;;;;;;11.42;100.00;99705.41;218290;1288;140062;-90
2023/04/15 10:23:45;;;;;;;14.30;9.50;;;;;;;11.50;100.00;99705.54;217951;1288;138938;-91
2023/04/15 10:28:47;;;;;;;16.10;10.10;;;;;;;11.60;100.00;99708.73;218480;1291;138690;-89
2023/04/15 10:33:48;;;;;;;14.40;9.30;;;;;;;11.74;100.00;99715.69;217797;1289;139210;-89
2023/04/15 10:38:49;;;;;;;14.30;8.40;;;;;;;11.76;100.00;99717.48;218257;1289;139382;-88
2023/04/15 10:43:56;;;;;;;18.40;10.60;;;;;;;11.75;100.00;99719.54;218010;1291;139140;-89
2023/04/15 10:48:57;;;;;;;13.20;8.80;;;;;;;11.79;100.00;99720.31;217687;1289;139300;-90
2023/04/15 10:54:01;;;;;;;12.30;6.50;;;;;;;11.84;100.00;99725.64;218527;1289;96231;-89
2023/04/15 10:59:04;;;;;;;13.60;7.40;;;;;;;11.93;100.00;99729.30;217715;1289;138763;-90
2023/04/15 11:04:34;;;;;;;12.00;7.10;;;;;;;11.87;100.00;99728.38;218251;1288;138788;-90
2023/04/15 11:09:35;;;;;;;11.70;6.90;;;;;;;11.82;100.00;99737.30;217733;1289;140102;-89
2023/04/15 11:14:40;;;;;;;11.30;6.30;;;;;;;11.79;100.00;99733.93;218450;1287;139944;-88
2023/04/15 11:19:41;;;;;;;12.40;6.80;;;;;;;11.76;100.00;99736.39;217848;1288;139638;-89
2023/04/15 11:24:50;;;;;;;14.10;7.70;;;;;;;11.75;100.00;99746.23;218578;1288;139547;-89
2023/04/15 11:29:52;;;;;;;13.40;8.70;;;;;;;11.68;100.00;99755.57;217864;1289;141173;-89
2023/04/15 11:34:52;;;;;;;20.40;10.10;;;;;;;11.60;100.00;99763.55;218248;1288;139272;-90
2023/04/15 11:39:53;;;;;;;14.00;8.60;;;;;;;11.56;100.00;99769.13;217921;1291;140483;-91
2023/04/15 11:45:11;;;;;;;15.20;8.00;;;;;;;11.47;100.00;99770.10;218473;1289;139518;-90
2023/04/15 11:50:18;;;;;;;13.50;8.30;;;;;;;11.40;100.00;99772.25;217792;1291;140123;-91
2023/04/15 11:55:19;;;;;;;13.30;7.10;;;;;;;11.41;100.00;99771.45;218439;1289;138955;-90
2023/04/15 12:00:19;;;;;;;13.90;7.00;;;;;;;11.40;100.00;99776.41;218053;1288;139825;-90
2023/04/15 12:05:20;;;;;;;14.10;7.20;;;;;;;11.27;100.00;99785.59;218448;1288;139189;-90
2023/04/15 12:10:24;;;;;;;19.00;8.80;;;;;;;11.15;100.00;99788.44;217899;1289;141411;-89
2023/04/15 12:15:24;;;;;;;15.30;8.50;;;;;;;11.22;100.00;99791.02;218459;1289;139427;-90
2023/04/15 12:20:25;;;;;;;12.00;6.90;;;;;;;11.25;100.00;99796.14;218018;1288;139017;-89
2023/04/15 12:25:34;;;;;;;13.40;8.20;;;;;;;11.32;100.00;99802.10;218355;1288;139344;-91
2023/04/15 12:30:35;;;;;;;11.70;6.50;;;;;;;11.36;100.00;99807.52;217789;1289;140649;-91
2023/04/15 12:35:35;;;;;;;14.90;8.70;;;;;;;11.42;100.00;99816.55;218542;1288;96959;-92
2023/04/15 12:40:36;;;;;;;13.60;8.90;;;;;;;11.43;100.00;99819.63;217734;1289;139589;-93
2023/04/15 12:45:36;;;;;;;15.10;8.10;;;;;;;11.37;100.00;99826.65;218252;1291;139003;-93
2023/04/15 12:50:37;;;;;;;12.60;7.20;;;;;;;11.39;100.00;99823.58;217641;1289;140505;-93
2023/04/15 12:55:37;;;;;;;15.10;8.00;;;;;;;11.36;100.00;99830.11;218349;1289;139243;-93
2023/04/15 13:00:38;;;;;;;13.50;7.70;;;;;;;11.33;100.00;99833.66;217600;1288;139467;-93
2023/04/15 13:05:39;;;;;;;14.50;7.50;;;;;;;11.37;100.00;99837.90;218562;1288;96190;-92
2023/04/15 13:10:41;;;;;;;11.30;7.30;;;;;;;11.43;100.00;99840.80;218038;1289;139050;-93
2023/04/15 13:15:44;;;;;;;11.90;7.20;;;;;;;11.45;100.00;99846.55;218480;1289;139189;-93
2023/04/15 13:20:45;;;;;;;10.90;6.70;;;;;;;11.46;100.00;99849.14;217772;1289;139119;-94
2023/04/15 13:25:45;;;;;;;14.00;8.70;;;;;;;11.54;100.00;99850.63;218432;1289;139034;-93
2023/04/15 13:30:47;;;;;;;17.30;10.10;;;;;;;11.62;100.00;99854.27;217794;1288;139273;-93
2023/04/15 13:35:48;;;;;;;13.90;8.50;;;;;;;11.67;100.00;99854.73;218588;1288;96016;-92
2023/04/15 13:40:48;;;;;;;14.50;9.10;;;;;;;11.72;100.00;99852.02;217776;1291;139435;-92
2023/04/15 13:45:49;;;;;;;13.10;8.40;;;;;;;11.72;100.00;99858.17;218505;1288;139832;-92
2023/04/15 13:50:49;;;;;;;14.40;8.10;;;;;;;11.80;100.00;99861.46;217816;1288;140064;-92
2023/04/15 13:55:50;;;;;;;12.60;8.30;;;;;;;11.86;100.00;99862.61;218310;1289;138927;-92
2023/04/15 14:00:50;;;;;;;14.00;8.80;;;;;;;11.89;100.00;99865.05;217688;1288;139295;-92
2023/04/15 14:05:54;;;;;;;13.20;8.50;;;;;;;11.95;100.00;99869.60;218724;1288;96032;-92
2023/04/15 14:10:56;;;;;;;13.30;9.10;;;;;;;12.00;100.00;99871.30;217745;1288;139396;-91
2023/04/15 14:15:56;;;;;;;15.20;9.30;;;;;;;12.13;100.00;99873.08;218509;1288;139438;-92
2023/04/15 14:20:57;;;;;;;14.70;8.90;;;;;;;12.20;100.00;99876.83;217812;1289;139510;-91
2023/04/15 14:25:57;;;;;;;16.30;10.50;;;;;;;12.29;100.00;99877.33;218463;1288;138989;-92
2023/04/15 14:30:58;;;;;;;19.10;11.50;;;;;;;12.39;100.00;99880.99;217742;1288;140745;-91
2023/04/15 14:35:58;;;;;;;20.60;12.00;;;;;;;12.46;100.00;99886.64;218609;1288;98420;-91
2023/04/15 14:40:59;;;;;;;17.20;10.30;;;;;;;12.49;100.00;99891.98;217811;1288;138806;-91
2023/04/15 14:46:00;;;;;;;14.50;9.50;;;;;;;12.45;100.00;99896.89;218466;1288;138955;-91
2023/04/15 14:51:01;;;;;;;13.90;9.10;;;;;;;12.47;100.00;99900.27;217985;1288;139804;-91
2023/04/15 14:56:02;;;;;;;15.00;9.90;;;;;;;12.48;100.00;99905.23;218385;1288;139089;-91
2023/04/15 15:01:03;;;;;;;28.80;15.70;;;;;;;12.48;100.00;99907.77;218089;1288;139862;-90
2023/04/15 15:06:04;;;;;;;28.10;18.40;;;;;;;12.42;100.00;99912.05;218613;1288;96317;-90
2023/04/15 15:11:04;;;;;;;21.20;13.40;;;;;;;12.40;100.00;99910.41;217893;1288;140435;-91
2023/04/15 15:16:05;;;;;;;19.10;13.10;;;;;;;12.38;100.00;99914.12;218434;1288;138930;-90
2023/04/15 15:21:06;;;;;;;19.90;13.00;;;;;;;12.31;100.00;99921.48;218003;1288;140523;-91
2023/04/15 15:26:06;;;;;;;19.00;11.00;;;;;;;12.23;100.00;99924.82;218503;1287;139741;-90
2023/04/15 15:31:06;;;;;;;18.50;12.60;;;;;;;12.14;100.00;99927.92;217948;1287;140193;-90
2023/04/15 15:36:09;;;;;;;25.30;15.10;;;;;;;12.16;100.00;99932.80;218622;1287;96320;-90
2023/04/15 15:41:10;;;;;;;26.30;16.00;;;;;;;12.19;100.00;99930.52;217756;1289;139763;-90
2023/04/15 15:46:11;;;;;;;25.50;15.90;;;;;;;12.14;100.00;99937.94;218454;1289;138940;-89
2023/04/15 15:51:11;;;;;;;24.60;16.00;;;;;;;12.12;100.00;99941.40;217843;1288;139342;-89
2023/04/15 15:56:12;;;;;;;51.00;25.70;;;;;;;12.07;100.00;99949.23;218599;1288;141035;-89
2023/04/15 16:01:12;;;;;;;73.80;38.00;;;;;;;11.99;100.00;99954.05;217918;1288;139082;-89
2023/04/15 16:06:12;;;;;;;61.30;36.10;;;;;;;11.90;100.00;99954.39;218559;1288;96016;-89
2023/04/15 16:11:13;;;;;;;50.70;28.30;;;;;;;11.89;100.00;99956.13;217963;1289;140408;-89
2023/04/15 16:16:14;;;;;;;39.10;19.60;;;;;;;11.80;100.00;99958.27;217821;1288;731375;-88
2023/04/15 16:21:14;;;;;;;36.40;21.60;;;;;;;11.65;100.00;99964.98;217860;1288;139228;-89
2023/04/15 16:26:15;;;;;;;29.70;16.50;;;;;;;11.55;100.00;99972.35;218471;1288;139676;-89
2023/04/15 16:31:16;;;;;;;41.40;18.70;;;;;;;11.47;100.00;99973.30;217901;1288;139125;-88
2023/04/15 16:36:16;;;;;;;40.50;18.10;;;;;;;11.39;100.00;99980.92;218630;1288;95926;-89
2023/04/15 16:41:17;;;;;;;52.90;26.20;;;;;;;11.34;100.00;99983.76;217798;1288;139404;-89
2023/04/15 16:46:17;;;;;;;48.50;21.10;;;;;;;11.32;100.00;99986.84;218461;1288;139629;-89
2023/04/15 16:51:18;;;;;;;23.20;11.60;;;;;;;11.28;100.00;99994.08;218066;1288;139352;-89
2023/04/15 16:56:20;;;;;;;29.50;13.40;;;;;;;11.25;100.00;99997.04;218448;1288;139428;-89
2023/04/15 17:01:21;;;;;;;31.50;14.40;;;;;;;11.18;100.00;99998.85;217739;1287;142125;-88
2023/04/15 17:06:21;;;;;;;49.70;23.20;;;;;;;11.10;100.00;100002.21;218524;1288;95936;-89
2023/04/15 17:11:22;;;;;;;40.70;17.90;;;;;;;11.05;100.00;100006.45;217910;1288;139039;-88
2023/04/15 17:16:22;;;;;;;23.00;12.80;;;;;;;10.98;100.00;100010.44;218433;1287;139588;-88
2023/04/15 17:21:24;;;;;;;14.90;8.80;;;;;;;10.96;100.00;100016.42;217923;1288;139931;-88
2023/04/15 17:26:24;;;;;;;14.80;9.70;;;;;;;10.96;100.00;100017.76;218187;1288;139032;-89
2023/04/15 17:31:25;;;;;;;14.30;10.40;;;;;;;10.95;100.00;100022.56;217716;1287;139246;-88
2023/04/15 17:36:26;;;;;;;27.00;14.20;;;;;;;10.92;100.00;100029.55;218333;1288;112378;-88
2023/04/15 17:41:26;;;;;;;26.90;14.30;;;;;;;10.86;100.00;100037.25;217900;1287;139237;-88
2023/04/15 17:46:26;;;;;;;17.00;10.20;;;;;;;10.82;100.00;100043.91;218619;1288;139112;-87
2023/04/15 17:51:27;;;;;;;17.00;10.50;;;;;;;10.79;100.00;100045.39;217957;1288;139592;-88
2023/04/15 17:56:27;;;;;;;21.70;13.00;;;;;;;10.76;100.00;100054.81;218416;1288;139303;-88
2023/04/15 18:01:28;;;;;;;28.90;19.10;;;;;;;10.72;100.00;100052.44;217838;1288;140694;-87
2023/04/15 18:06:28;;;;;;;18.50;11.90;;;;;;;10.68;100.00;100050.45;218470;1288;139369;-87
2023/04/15 18:11:32;;;;;;;33.10;23.30;;;;;;;10.62;100.00;100063.40;218049;1288;140814;-91
2023/04/15 18:16:32;;;;;;;47.60;26.00;;;;;;;10.55;100.00;100074.29;218452;1288;139191;-92
2023/04/15 18:21:33;;;;;;;37.10;20.50;;;;;;;10.45;100.00;100080.77;217808;1288;139447;-92
2023/04/15 18:26:34;;;;;;;49.20;23.90;;;;;;;10.36;100.00;100086.13;218451;1288;140806;-91
2023/04/15 18:31:34;;;;;;;40.20;21.10;;;;;;;10.29;100.00;100093.23;217682;1288;139308;-92
2023/04/15 18:36:35;;;;;;;39.60;19.40;;;;;;;10.24;100.00;100099.33;218141;1289;139869;-91
2023/04/15 18:41:36;;;;;;;24.90;12.90;;;;;;;10.20;100.00;100102.60;218013;1288;139066;-91
2023/04/15 18:46:37;;;;;;;35.60;15.80;;;;;;;10.16;100.00;100110.95;218220;1288;139511;-91
2023/04/15 18:51:38;;;;;;;13.60;8.50;;;;;;;10.09;100.00;100108.73;217720;1288;139877;-91
2023/04/15 18:56:39;;;;;;;12.60;7.20;;;;;;;10.05;100.00;100112.52;218303;1288;139123;-92
2023/04/15 19:01:39;;;;;;;11.90;6.50;;;;;;;10.00;100.00;100107.98;217782;1288;140412;-90
2023/04/15 19:06:40;;;;;;;32.60;18.80;;;;;;;9.97;100.00;100106.55;218251;1288;139563;-92
2023/04/15 19:11:42;;;;;;;16.60;8.50;;;;;;;9.93;100.00;100109.11;217828;1288;139163;-90
2023/04/15 19:16:43;;;;;;;14.30;9.10;;;;;;;9.88;100.00;100113.06;218318;1288;138944;-91
2023/04/15 19:21:48;;;;;;;31.70;15.10;;;;;;;9.85;100.00;100118.55;217710;1288;139312;-91
2023/04/15 19:26:49;;;;;;;26.00;11.80;;;;;;;9.83;100.00;100123.39;218160;1288;140697;-91
2023/04/15 19:31:50;;;;;;;14.90;8.90;;;;;;;9.79;100.00;100123.36;217830;1288;140159;-91
2023/04/15 19:36:51;;;;;;;14.40;7.50;;;;;;;9.77;100.00;100122.70;218628;1288;139008;-91
2023/04/15 19:41:53;;;;;;;17.30;9.20;;;;;;;9.73;100.00;100124.88;217729;1288;139539;-91
2023/04/15 19:46:54;;;;;;;16.60;9.20;;;;;;;9.71;100.00;100131.91;218455;1288;138466;-90
2023/04/15 19:51:56;;;;;;;23.70;13.30;;;;;;;9.68;100.00;100131.56;217664;1288;139465;-88
2023/04/15 19:56:57;;;;;;;26.90;15.10;;;;;;;9.67;100.00;100135.56;218359;1288;139249;-89
2023/04/15 20:01:57;;;;;;;26.50;14.50;;;;;;;9.65;100.00;100132.80;217871;1288;140692;-89
2023/04/15 20:06:58;;;;;;;20.80;11.90;;;;;;;9.64;100.00;100131.77;218333;1288;139506;-88
2023/04/15 20:11:58;;;;;;;24.00;15.70;;;;;;;9.65;100.00;100129.11;217933;1288;138936;-89
2023/04/15 20:16:59;;;;;;;23.50;14.80;;;;;;;9.66;100.00;100133.11;218525;1288;138674;-89
2023/04/15 20:22:00;;;;;;;25.00;16.00;;;;;;;9.66;100.00;100139.87;217846;1288;139132;-89
2023/04/15 20:27:00;;;;;;;38.50;24.80;;;;;;;9.66;100.00;100148.89;218561;1287;139067;-89
2023/04/15 20:32:01;;;;;;;31.60;22.00;;;;;;;9.68;100.00;100154.25;218011;1288;139642;-89
2023/04/15 20:37:01;;;;;;;26.80;18.40;;;;;;;9.72;100.00;100165.05;218372;1288;139439;-88
2023/04/15 20:42:02;;;;;;;24.00;16.00;;;;;;;9.74;100.00;100171.05;218129;1288;139675;-88
2023/04/15 20:47:03;;;;;;;24.00;15.50;;;;;;;9.74;100.00;100180.00;218303;1289;138862;-87
2023/04/15 20:52:07;;;;;;;27.30;16.50;;;;;;;9.74;100.00;100186.20;217755;1288;139315;-88
2023/04/15 20:57:07;;;;;;;26.40;16.80;;;;;;;9.74;100.00;100189.50;218225;1288;139463;-88
2023/04/15 21:02:08;;;;;;;29.40;17.80;;;;;;;9.74;100.00;100194.44;217970;1289;139074;-88
2023/04/15 21:07:08;;;;;;;33.30;19.90;;;;;;;9.75;100.00;100200.17;218633;1288;139427;-89
2023/04/15 21:12:10;;;;;;;31.50;21.10;;;;;;;9.76;100.00;100209.54;217902;1287;139262;-90
2023/04/15 21:17:10;;;;;;;34.40;20.30;;;;;;;9.76;100.00;100220.14;218633;1288;139007;-89
2023/04/15 21:22:10;;;;;;;29.40;18.30;;;;;;;9.73;100.00;100226.94;218142;1288;139265;-90
2023/04/15 21:27:11;;;;;;;30.10;18.90;;;;;;;9.72;100.00;100231.25;218462;1288;139054;-89
2023/04/15 21:32:11;;;;;;;27.50;18.80;;;;;;;9.72;100.00;100239.65;217904;1288;139128;-88
2023/04/15 21:37:12;;;;;;;30.80;18.80;;;;;;;9.69;100.00;100244.55;218435;1288;139055;-88
2023/04/15 21:42:12;;;;;;;29.60;20.60;;;;;;;9.69;100.00;100247.94;218232;1288;139585;-88
2023/04/15 21:47:13;;;;;;;35.00;23.30;;;;;;;9.69;100.00;100251.70;218707;1288;138756;-88
2023/04/15 21:52:14;;;;;;;36.10;24.20;;;;;;;9.70;100.00;100252.11;217946;1291;139304;-89
2023/04/15 21:57:14;;;;;;;33.10;21.70;;;;;;;9.73;100.00;100256.45;218471;1288;138828;-88
2023/04/15 22:02:15;;;;;;;32.10;21.80;;;;;;;9.72;100.00;100259.04;218125;1288;139776;-92
2023/04/15 22:07:15;;;;;;;33.20;21.20;;;;;;;9.67;100.00;100269.50;218567;1288;137776;-93
2023/04/15 22:12:16;;;;;;;31.00;21.10;;;;;;;9.62;100.00;100273.44;217998;1288;138947;-92
2023/04/15 22:17:16;;;;;;;36.70;24.10;;;;;;;9.58;100.00;100270.48;218623;1288;138878;-91
2023/04/15 22:22:17;;;;;;;36.30;23.90;;;;;;;9.56;100.00;100274.31;217823;1288;139641;-91
2023/04/15 22:27:18;;;;;;;39.60;26.30;;;;;;;9.55;100.00;100280.50;218442;1288;139302;-92